NCAR-RAP Real-Time Weather Data

Output produced by METARs form (29 September 2020  14:35 UTC)
found at http://weather.rap.ucar.edu/surface/
 
KSTC 291353Z 22007KT 10SM FEW060 SCT075 OVC095 09/06 A2982 RMK AO2 SLP110 T00890061
KSTC 291253Z 24006KT 10SM FEW075 BKN100 08/07 A2982 RMK AO2 SLP110 T00830067
KSTC 291153Z 22005KT 10SM BKN110 08/06 A2982 RMK AO2 SLP111 70003 T00780061 10100 20078 58013
KSTC 291053Z AUTO 27006KT 10SM CLR 08/07 A2985 RMK AO2 SLP120 T00830067
KSTC 290953Z AUTO 29006KT 10SM CLR 09/07 A2985 RMK AO2 SLP120 T00890067
KSTC 290931Z AUTO 31008KT 10SM SCT026 09/07 A2986 RMK AO2 T00890067
KSTC 290853Z AUTO 29007KT 10SM OVC026 09/07 A2986 RMK AO2 SLP123 T00940067 56010
KSTC 290753Z AUTO 28007KT 10SM OVC027 09/07 A2986 RMK AO2 SLP124 T00940067
KSTC 290653Z AUTO 30009KT 10SM OVC026 10/07 A2987 RMK AO2 SLP129 T01000067